sensor_id;sensor_type;location;lat;lon;timestamp;P1;durP1;ratioP1;P2;durP2;ratioP2
33357;SDS011;19717;42.614;23.418;2023-05-10T00:00:35;1.30;;;1.30;;
33357;SDS011;19717;42.614;23.418;2023-05-10T00:03:01;1.42;;;1.42;;
33357;SDS011;19717;42.614;23.418;2023-05-10T00:05:29;1.67;;;1.60;;
33357;SDS011;19717;42.614;23.418;2023-05-10T00:07:55;1.50;;;1.40;;
33357;SDS011;19717;42.614;23.418;2023-05-10T00:10:21;1.58;;;1.50;;
33357;SDS011;19717;42.614;23.418;2023-05-10T00:12:48;1.60;;;1.50;;
33357;SDS011;19717;42.614;23.418;2023-05-10T00:15:14;1.52;;;1.42;;
33357;SDS011;19717;42.614;23.418;2023-05-10T00:17:40;1.60;;;1.50;;
33357;SDS011;19717;42.614;23.418;2023-05-10T00:20:06;1.67;;;1.60;;
33357;SDS011;19717;42.614;23.418;2023-05-10T00:22:32;1.65;;;1.50;;
33357;SDS011;19717;42.614;23.418;2023-05-10T00:24:58;2.53;;;1.58;;
33357;SDS011;19717;42.614;23.418;2023-05-10T00:27:25;1.65;;;1.58;;
33357;SDS011;19717;42.614;23.418;2023-05-10T00:29:51;1.80;;;1.70;;
33357;SDS011;19717;42.614;23.418;2023-05-10T00:32:17;1.52;;;1.45;;
33357;SDS011;19717;42.614;23.418;2023-05-10T00:34:43;1.52;;;1.52;;
33357;SDS011;19717;42.614;23.418;2023-05-10T00:37:09;1.58;;;1.48;;
33357;SDS011;19717;42.614;23.418;2023-05-10T00:39:35;1.80;;;1.70;;
33357;SDS011;19717;42.614;23.418;2023-05-10T00:42:01;1.75;;;1.65;;
33357;SDS011;19717;42.614;23.418;2023-05-10T00:44:27;1.77;;;1.67;;
33357;SDS011;19717;42.614;23.418;2023-05-10T00:46:53;2.00;;;1.90;;
33357;SDS011;19717;42.614;23.418;2023-05-10T00:49:19;1.55;;;1.52;;
33357;SDS011;19717;42.614;23.418;2023-05-10T00:51:46;1.95;;;1.85;;
33357;SDS011;19717;42.614;23.418;2023-05-10T00:54:12;2.58;;;1.80;;
33357;SDS011;19717;42.614;23.418;2023-05-10T00:56:40;2.10;;;2.00;;
33357;SDS011;19717;42.614;23.418;2023-05-10T00:59:07;2.00;;;1.90;;
33357;SDS011;19717;42.614;23.418;2023-05-10T01:01:34;1.70;;;1.63;;
33357;SDS011;19717;42.614;23.418;2023-05-10T01:04:01;1.95;;;1.85;;
33357;SDS011;19717;42.614;23.418;2023-05-10T01:06:28;2.03;;;1.92;;
33357;SDS011;19717;42.614;23.418;2023-05-10T01:08:54;1.77;;;1.67;;
33357;SDS011;19717;42.614;23.418;2023-05-10T01:11:20;1.73;;;1.63;;
33357;SDS011;19717;42.614;23.418;2023-05-10T01:13:47;1.67;;;1.58;;
33357;SDS011;19717;42.614;23.418;2023-05-10T01:16:16;1.85;;;1.60;;
33357;SDS011;19717;42.614;23.418;2023-05-10T01:18:42;1.70;;;1.60;;
33357;SDS011;19717;42.614;23.418;2023-05-10T01:29:27;2.13;;;2.00;;
33357;SDS011;19717;42.614;23.418;2023-05-10T01:32:08;1.83;;;1.73;;
33357;SDS011;19717;42.614;23.418;2023-05-10T01:37:10;1.75;;;1.65;;
33357;SDS011;19717;42.614;23.418;2023-05-10T01:42:09;2.45;;;1.50;;
33357;SDS011;19717;42.614;23.418;2023-05-10T01:47:20;1.50;;;1.50;;
33357;SDS011;19717;42.614;23.418;2023-05-10T01:52:18;1.67;;;1.58;;
33357;SDS011;19717;42.614;23.418;2023-05-10T01:54:49;1.30;;;1.30;;
33357;SDS011;19717;42.614;23.418;2023-05-10T01:57:15;1.40;;;1.30;;
33357;SDS011;19717;42.614;23.418;2023-05-10T01:59:42;1.30;;;1.30;;
33357;SDS011;19717;42.614;23.418;2023-05-10T02:02:09;1.60;;;1.50;;
33357;SDS011;19717;42.614;23.418;2023-05-10T02:04:37;1.40;;;1.30;;
33357;SDS011;19717;42.614;23.418;2023-05-10T02:07:04;1.50;;;1.50;;
33357;SDS011;19717;42.614;23.418;2023-05-10T02:09:33;1.60;;;1.50;;
33357;SDS011;19717;42.614;23.418;2023-05-10T02:12:01;1.40;;;1.30;;
33357;SDS011;19717;42.614;23.418;2023-05-10T02:14:28;1.38;;;1.38;;
33357;SDS011;19717;42.614;23.418;2023-05-10T02:16:56;1.75;;;1.65;;
33357;SDS011;19717;42.614;23.418;2023-05-10T02:19:22;1.20;;;1.20;;
33357;SDS011;19717;42.614;23.418;2023-05-10T02:21:49;1.27;;;1.27;;
33357;SDS011;19717;42.614;23.418;2023-05-10T02:24:16;1.52;;;1.42;;
33357;SDS011;19717;42.614;23.418;2023-05-10T02:26:42;1.42;;;1.42;;
33357;SDS011;19717;42.614;23.418;2023-05-10T02:29:09;1.20;;;1.20;;
33357;SDS011;19717;42.614;23.418;2023-05-10T02:31:37;2.08;;;1.35;;
33357;SDS011;19717;42.614;23.418;2023-05-10T02:34:04;1.00;;;1.00;;
33357;SDS011;19717;42.614;23.418;2023-05-10T02:36:32;1.40;;;1.30;;
33357;SDS011;19717;42.614;23.418;2023-05-10T02:38:58;1.63;;;1.52;;
33357;SDS011;19717;42.614;23.418;2023-05-10T02:41:26;1.25;;;1.15;;
33357;SDS011;19717;42.614;23.418;2023-05-10T02:43:54;1.30;;;1.20;;
33357;SDS011;19717;42.614;23.418;2023-05-10T02:46:21;1.25;;;1.23;;
33357;SDS011;19717;42.614;23.418;2023-05-10T02:48:47;2.22;;;1.35;;
33357;SDS011;19717;42.614;23.418;2023-05-10T02:51:13;1.20;;;1.20;;
33357;SDS011;19717;42.614;23.418;2023-05-10T02:53:43;1.35;;;1.27;;
33357;SDS011;19717;42.614;23.418;2023-05-10T02:56:13;1.58;;;1.30;;
33357;SDS011;19717;42.614;23.418;2023-05-10T02:58:42;1.40;;;1.30;;
33357;SDS011;19717;42.614;23.418;2023-05-10T03:01:08;1.10;;;1.10;;
33357;SDS011;19717;42.614;23.418;2023-05-10T03:03:34;1.50;;;1.40;;
33357;SDS011;19717;42.614;23.418;2023-05-10T03:06:00;1.42;;;1.30;;
33357;SDS011;19717;42.614;23.418;2023-05-10T03:08:26;1.23;;;1.23;;
33357;SDS011;19717;42.614;23.418;2023-05-10T03:10:57;1.30;;;1.30;;
33357;SDS011;19717;42.614;23.418;2023-05-10T03:19:02;1.30;;;1.30;;
33357;SDS011;19717;42.614;23.418;2023-05-10T03:21:32;1.35;;;1.35;;
33357;SDS011;19717;42.614;23.418;2023-05-10T03:24:09;1.67;;;1.23;;
33357;SDS011;19717;42.614;23.418;2023-05-10T03:26:37;1.60;;;1.50;;
33357;SDS011;19717;42.614;23.418;2023-05-10T03:29:04;1.40;;;1.30;;
33357;SDS011;19717;42.614;23.418;2023-05-10T03:31:32;1.50;;;1.40;;
33357;SDS011;19717;42.614;23.418;2023-05-10T03:33:58;1.30;;;1.30;;
33357;SDS011;19717;42.614;23.418;2023-05-10T03:36:24;1.70;;;1.60;;
33357;SDS011;19717;42.614;23.418;2023-05-10T03:38:50;1.50;;;1.40;;
33357;SDS011;19717;42.614;23.418;2023-05-10T03:41:17;1.45;;;1.38;;
33357;SDS011;19717;42.614;23.418;2023-05-10T03:43:43;1.30;;;1.30;;
33357;SDS011;19717;42.614;23.418;2023-05-10T03:46:09;1.48;;;1.38;;
33357;SDS011;19717;42.614;23.418;2023-05-10T03:48:35;1.20;;;1.20;;
33357;SDS011;19717;42.614;23.418;2023-05-10T03:51:01;1.50;;;1.40;;
33357;SDS011;19717;42.614;23.418;2023-05-10T03:53:29;1.30;;;1.20;;
33357;SDS011;19717;42.614;23.418;2023-05-10T03:55:56;1.20;;;1.20;;
33357;SDS011;19717;42.614;23.418;2023-05-10T03:58:22;1.50;;;1.40;;
33357;SDS011;19717;42.614;23.418;2023-05-10T04:00:48;1.42;;;1.33;;
33357;SDS011;19717;42.614;23.418;2023-05-10T04:03:14;1.40;;;1.30;;
33357;SDS011;19717;42.614;23.418;2023-05-10T04:05:40;1.50;;;1.40;;
33357;SDS011;19717;42.614;23.418;2023-05-10T04:10:35;1.20;;;1.20;;
33357;SDS011;19717;42.614;23.418;2023-05-10T04:13:01;1.50;;;1.40;;
33357;SDS011;19717;42.614;23.418;2023-05-10T04:15:27;1.67;;;1.40;;
33357;SDS011;19717;42.614;23.418;2023-05-10T04:17:54;1.40;;;1.30;;
33357;SDS011;19717;42.614;23.418;2023-05-10T04:20:20;1.52;;;1.45;;
33357;SDS011;19717;42.614;23.418;2023-05-10T04:22:46;1.58;;;1.48;;
33357;SDS011;19717;42.614;23.418;2023-05-10T04:25:12;1.17;;;1.17;;
33357;SDS011;19717;42.614;23.418;2023-05-10T04:27:38;1.27;;;1.27;;
33357;SDS011;19717;42.614;23.418;2023-05-10T04:30:04;1.60;;;1.50;;
33357;SDS011;19717;42.614;23.418;2023-05-10T04:32:31;1.60;;;1.50;;
33357;SDS011;19717;42.614;23.418;2023-05-10T04:34:57;1.60;;;1.50;;
33357;SDS011;19717;42.614;23.418;2023-05-10T04:37:23;1.40;;;1.30;;
33357;SDS011;19717;42.614;23.418;2023-05-10T04:39:49;1.23;;;1.23;;
33357;SDS011;19717;42.614;23.418;2023-05-10T04:42:15;1.27;;;1.27;;
33357;SDS011;19717;42.614;23.418;2023-05-10T04:44:41;1.10;;;1.10;;
33357;SDS011;19717;42.614;23.418;2023-05-10T04:47:07;1.45;;;1.35;;
33357;SDS011;19717;42.614;23.418;2023-05-10T04:49:33;1.48;;;1.38;;
33357;SDS011;19717;42.614;23.418;2023-05-10T04:51:59;2.05;;;1.30;;
33357;SDS011;19717;42.614;23.418;2023-05-10T04:54:25;1.75;;;1.65;;
33357;SDS011;19717;42.614;23.418;2023-05-10T04:56:51;1.25;;;1.25;;
33357;SDS011;19717;42.614;23.418;2023-05-10T04:59:17;1.23;;;1.23;;
33357;SDS011;19717;42.614;23.418;2023-05-10T05:01:44;1.38;;;1.38;;
33357;SDS011;19717;42.614;23.418;2023-05-10T05:04:10;1.45;;;1.42;;
33357;SDS011;19717;42.614;23.418;2023-05-10T05:06:36;1.60;;;1.50;;
33357;SDS011;19717;42.614;23.418;2023-05-10T05:09:02;1.73;;;1.63;;
33357;SDS011;19717;42.614;23.418;2023-05-10T05:11:28;2.08;;;1.90;;
33357;SDS011;19717;42.614;23.418;2023-05-10T05:13:54;1.40;;;1.30;;
33357;SDS011;19717;42.614;23.418;2023-05-10T05:16:21;1.50;;;1.40;;
33357;SDS011;19717;42.614;23.418;2023-05-10T05:18:47;1.70;;;1.60;;
33357;SDS011;19717;42.614;23.418;2023-05-10T05:21:17;1.73;;;1.63;;
33357;SDS011;19717;42.614;23.418;2023-05-10T05:23:43;1.60;;;1.50;;
33357;SDS011;19717;42.614;23.418;2023-05-10T05:26:10;1.70;;;1.60;;
33357;SDS011;19717;42.614;23.418;2023-05-10T05:28:36;1.75;;;1.65;;
33357;SDS011;19717;42.614;23.418;2023-05-10T05:31:06;1.45;;;1.45;;
33357;SDS011;19717;42.614;23.418;2023-05-10T05:33:35;1.85;;;1.75;;
33357;SDS011;19717;42.614;23.418;2023-05-10T05:36:02;2.22;;;1.80;;
33357;SDS011;19717;42.614;23.418;2023-05-10T05:38:28;1.70;;;1.60;;
33357;SDS011;19717;42.614;23.418;2023-05-10T05:40:55;2.08;;;1.92;;
33357;SDS011;19717;42.614;23.418;2023-05-10T05:43:21;3.70;;;1.67;;
33357;SDS011;19717;42.614;23.418;2023-05-10T05:45:47;2.00;;;1.90;;
33357;SDS011;19717;42.614;23.418;2023-05-10T05:48:13;2.55;;;2.08;;
33357;SDS011;19717;42.614;23.418;2023-05-10T05:50:40;2.22;;;1.95;;
33357;SDS011;19717;42.614;23.418;2023-05-10T05:53:06;1.73;;;1.63;;
33357;SDS011;19717;42.614;23.418;2023-05-10T05:55:33;1.85;;;1.75;;
33357;SDS011;19717;42.614;23.418;2023-05-10T05:57:59;1.75;;;1.65;;
33357;SDS011;19717;42.614;23.418;2023-05-10T06:00:25;1.92;;;1.83;;
33357;SDS011;19717;42.614;23.418;2023-05-10T06:02:51;2.03;;;1.92;;
33357;SDS011;19717;42.614;23.418;2023-05-10T06:05:18;2.35;;;2.15;;
33357;SDS011;19717;42.614;23.418;2023-05-10T06:07:45;1.98;;;1.88;;
33357;SDS011;19717;42.614;23.418;2023-05-10T06:10:11;1.83;;;1.73;;
33357;SDS011;19717;42.614;23.418;2023-05-10T06:12:38;2.83;;;2.00;;
33357;SDS011;19717;42.614;23.418;2023-05-10T06:15:04;1.92;;;1.83;;
33357;SDS011;19717;42.614;23.418;2023-05-10T06:17:30;2.20;;;2.10;;
33357;SDS011;19717;42.614;23.418;2023-05-10T06:19:56;2.15;;;2.05;;
33357;SDS011;19717;42.614;23.418;2023-05-10T06:22:22;2.28;;;2.08;;
33357;SDS011;19717;42.614;23.418;2023-05-10T06:24:49;2.22;;;2.10;;
33357;SDS011;19717;42.614;23.418;2023-05-10T06:27:15;2.13;;;2.03;;
33357;SDS011;19717;42.614;23.418;2023-05-10T06:29:41;1.98;;;1.88;;
33357;SDS011;19717;42.614;23.418;2023-05-10T06:32:07;2.35;;;2.20;;
33357;SDS011;19717;42.614;23.418;2023-05-10T06:34:33;2.38;;;2.17;;
33357;SDS011;19717;42.614;23.418;2023-05-10T06:36:59;2.08;;;1.90;;
33357;SDS011;19717;42.614;23.418;2023-05-10T06:39:25;2.20;;;2.00;;
33357;SDS011;19717;42.614;23.418;2023-05-10T06:41:51;2.22;;;2.00;;
33357;SDS011;19717;42.614;23.418;2023-05-10T06:44:17;1.58;;;1.48;;
33357;SDS011;19717;42.614;23.418;2023-05-10T06:46:43;1.90;;;1.80;;
33357;SDS011;19717;42.614;23.418;2023-05-10T06:49:10;1.88;;;1.77;;
33357;SDS011;19717;42.614;23.418;2023-05-10T06:51:36;1.88;;;1.77;;
33357;SDS011;19717;42.614;23.418;2023-05-10T06:54:02;2.17;;;1.90;;
33357;SDS011;19717;42.614;23.418;2023-05-10T06:56:30;2.08;;;1.95;;
33357;SDS011;19717;42.614;23.418;2023-05-10T06:58:56;2.38;;;1.70;;
33357;SDS011;19717;42.614;23.418;2023-05-10T07:01:22;1.90;;;1.80;;
33357;SDS011;19717;42.614;23.418;2023-05-10T07:03:48;2.35;;;2.20;;
33357;SDS011;19717;42.614;23.418;2023-05-10T07:06:16;1.58;;;1.48;;
33357;SDS011;19717;42.614;23.418;2023-05-10T07:08:42;2.05;;;1.95;;
33357;SDS011;19717;42.614;23.418;2023-05-10T07:11:08;1.80;;;1.70;;
33357;SDS011;19717;42.614;23.418;2023-05-10T07:13:37;1.83;;;1.73;;
33357;SDS011;19717;42.614;23.418;2023-05-10T07:16:06;2.17;;;1.75;;
33357;SDS011;19717;42.614;23.418;2023-05-10T07:18:33;1.90;;;1.80;;
33357;SDS011;19717;42.614;23.418;2023-05-10T07:20:59;1.90;;;1.80;;
33357;SDS011;19717;42.614;23.418;2023-05-10T07:23:25;1.98;;;1.88;;
33357;SDS011;19717;42.614;23.418;2023-05-10T07:25:51;2.10;;;2.00;;
33357;SDS011;19717;42.614;23.418;2023-05-10T07:28:18;2.22;;;2.03;;
33357;SDS011;19717;42.614;23.418;2023-05-10T07:30:47;2.05;;;1.95;;
33357;SDS011;19717;42.614;23.418;2023-05-10T07:33:13;2.17;;;2.00;;
33357;SDS011;19717;42.614;23.418;2023-05-10T07:35:40;2.40;;;2.22;;
33357;SDS011;19717;42.614;23.418;2023-05-10T07:38:07;2.35;;;2.17;;
33357;SDS011;19717;42.614;23.418;2023-05-10T07:40:35;2.10;;;2.00;;
33357;SDS011;19717;42.614;23.418;2023-05-10T07:43:02;2.47;;;2.28;;
33357;SDS011;19717;42.614;23.418;2023-05-10T07:45:28;2.65;;;2.45;;
33357;SDS011;19717;42.614;23.418;2023-05-10T07:47:54;2.33;;;2.20;;
33357;SDS011;19717;42.614;23.418;2023-05-10T07:50:20;2.17;;;2.08;;
33357;SDS011;19717;42.614;23.418;2023-05-10T07:52:46;2.45;;;2.28;;
33357;SDS011;19717;42.614;23.418;2023-05-10T07:55:13;2.45;;;2.25;;
33357;SDS011;19717;42.614;23.418;2023-05-10T07:57:39;2.25;;;2.15;;
33357;SDS011;19717;42.614;23.418;2023-05-10T08:00:06;2.17;;;2.08;;
33357;SDS011;19717;42.614;23.418;2023-05-10T08:02:33;2.30;;;2.15;;
33357;SDS011;19717;42.614;23.418;2023-05-10T08:04:59;2.85;;;2.22;;
33357;SDS011;19717;42.614;23.418;2023-05-10T08:07:25;2.22;;;2.13;;
33357;SDS011;19717;42.614;23.418;2023-05-10T08:09:51;2.42;;;2.22;;
33357;SDS011;19717;42.614;23.418;2023-05-10T08:12:17;2.47;;;2.22;;
33357;SDS011;19717;42.614;23.418;2023-05-10T08:14:43;2.30;;;2.10;;
33357;SDS011;19717;42.614;23.418;2023-05-10T08:17:09;2.30;;;2.13;;
33357;SDS011;19717;42.614;23.418;2023-05-10T08:19:35;2.50;;;2.30;;
33357;SDS011;19717;42.614;23.418;2023-05-10T08:22:01;1.70;;;1.60;;
33357;SDS011;19717;42.614;23.418;2023-05-10T08:24:27;2.40;;;2.20;;
33357;SDS011;19717;42.614;23.418;2023-05-10T08:26:53;2.75;;;2.42;;
33357;SDS011;19717;42.614;23.418;2023-05-10T08:29:20;2.00;;;1.88;;
33357;SDS011;19717;42.614;23.418;2023-05-10T08:31:46;2.00;;;1.90;;
33357;SDS011;19717;42.614;23.418;2023-05-10T08:34:12;2.20;;;2.10;;
33357;SDS011;19717;42.614;23.418;2023-05-10T08:36:38;3.30;;;1.77;;
33357;SDS011;19717;42.614;23.418;2023-05-10T08:39:04;2.10;;;2.00;;
33357;SDS011;19717;42.614;23.418;2023-05-10T08:41:30;2.00;;;1.90;;
33357;SDS011;19717;42.614;23.418;2023-05-10T08:43:59;2.22;;;2.10;;
33357;SDS011;19717;42.614;23.418;2023-05-10T08:46:28;1.90;;;1.70;;
33357;SDS011;19717;42.614;23.418;2023-05-10T08:48:55;1.83;;;1.73;;
33357;SDS011;19717;42.614;23.418;2023-05-10T08:51:23;1.80;;;1.70;;
33357;SDS011;19717;42.614;23.418;2023-05-10T08:53:51;2.08;;;1.98;;
33357;SDS011;19717;42.614;23.418;2023-05-10T08:56:18;1.65;;;1.55;;
33357;SDS011;19717;42.614;23.418;2023-05-10T08:58:44;2.15;;;2.05;;
33357;SDS011;19717;42.614;23.418;2023-05-10T09:01:10;2.50;;;2.20;;
33357;SDS011;19717;42.614;23.418;2023-05-10T09:03:38;2.22;;;2.00;;
33357;SDS011;19717;42.614;23.418;2023-05-10T09:06:04;2.38;;;2.17;;
33357;SDS011;19717;42.614;23.418;2023-05-10T09:08:31;2.17;;;2.00;;
33357;SDS011;19717;42.614;23.418;2023-05-10T09:10:58;2.03;;;1.90;;
33357;SDS011;19717;42.614;23.418;2023-05-10T09:13:26;2.10;;;2.00;;
33357;SDS011;19717;42.614;23.418;2023-05-10T09:15:53;1.90;;;1.80;;
33357;SDS011;19717;42.614;23.418;2023-05-10T09:18:19;2.00;;;1.90;;
33357;SDS011;19717;42.614;23.418;2023-05-10T09:20:45;1.77;;;1.67;;
33357;SDS011;19717;42.614;23.418;2023-05-10T09:23:11;2.03;;;1.92;;
33357;SDS011;19717;42.614;23.418;2023-05-10T09:25:38;1.92;;;1.83;;
33357;SDS011;19717;42.614;23.418;2023-05-10T09:28:07;2.20;;;2.10;;
33357;SDS011;19717;42.614;23.418;2023-05-10T09:30:34;3.78;;;1.75;;
33357;SDS011;19717;42.614;23.418;2023-05-10T09:33:01;2.40;;;1.98;;
33357;SDS011;19717;42.614;23.418;2023-05-10T09:35:28;1.85;;;1.75;;
33357;SDS011;19717;42.614;23.418;2023-05-10T09:37:56;1.80;;;1.70;;
33357;SDS011;19717;42.614;23.418;2023-05-10T09:40:23;2.00;;;1.90;;
33357;SDS011;19717;42.614;23.418;2023-05-10T09:45:29;1.95;;;1.85;;
33357;SDS011;19717;42.614;23.418;2023-05-10T09:47:55;1.90;;;1.80;;
33357;SDS011;19717;42.614;23.418;2023-05-10T09:50:22;1.70;;;1.60;;
33357;SDS011;19717;42.614;23.418;2023-05-10T09:52:54;1.80;;;1.70;;
33357;SDS011;19717;42.614;23.418;2023-05-10T09:55:21;2.10;;;2.00;;
33357;SDS011;19717;42.614;23.418;2023-05-10T09:57:48;1.63;;;1.52;;
33357;SDS011;19717;42.614;23.418;2023-05-10T10:00:18;2.08;;;1.98;;
33357;SDS011;19717;42.614;23.418;2023-05-10T10:02:54;1.80;;;1.70;;
33357;SDS011;19717;42.614;23.418;2023-05-10T10:05:20;2.22;;;2.03;;
33357;SDS011;19717;42.614;23.418;2023-05-10T10:07:46;1.90;;;1.80;;
33357;SDS011;19717;42.614;23.418;2023-05-10T10:10:14;1.60;;;1.50;;
33357;SDS011;19717;42.614;23.418;2023-05-10T10:12:40;1.80;;;1.70;;
33357;SDS011;19717;42.614;23.418;2023-05-10T10:15:07;1.58;;;1.48;;
33357;SDS011;19717;42.614;23.418;2023-05-10T10:17:35;1.70;;;1.60;;
33357;SDS011;19717;42.614;23.418;2023-05-10T10:20:02;2.70;;;1.80;;
33357;SDS011;19717;42.614;23.418;2023-05-10T10:22:28;1.50;;;1.50;;
33357;SDS011;19717;42.614;23.418;2023-05-10T10:24:54;1.52;;;1.42;;
33357;SDS011;19717;42.614;23.418;2023-05-10T10:27:24;1.67;;;1.60;;
33357;SDS011;19717;42.614;23.418;2023-05-10T10:32:25;1.52;;;1.42;;
33357;SDS011;19717;42.614;23.418;2023-05-10T10:34:54;1.20;;;1.20;;
33357;SDS011;19717;42.614;23.418;2023-05-10T10:37:21;1.60;;;1.50;;
33357;SDS011;19717;42.614;23.418;2023-05-10T10:39:50;2.35;;;1.70;;
33357;SDS011;19717;42.614;23.418;2023-05-10T10:42:39;1.63;;;1.52;;
33357;SDS011;19717;42.614;23.418;2023-05-10T10:45:11;1.50;;;1.40;;
33357;SDS011;19717;42.614;23.418;2023-05-10T10:47:38;1.70;;;1.60;;
33357;SDS011;19717;42.614;23.418;2023-05-10T10:50:04;1.70;;;1.60;;
33357;SDS011;19717;42.614;23.418;2023-05-10T10:52:41;1.40;;;1.30;;
33357;SDS011;19717;42.614;23.418;2023-05-10T11:02:48;1.25;;;1.25;;
33357;SDS011;19717;42.614;23.418;2023-05-10T11:08:01;1.60;;;1.50;;
33357;SDS011;19717;42.614;23.418;2023-05-10T11:10:32;1.73;;;1.48;;
33357;SDS011;19717;42.614;23.418;2023-05-10T11:13:02;1.50;;;1.40;;
33357;SDS011;19717;42.614;23.418;2023-05-10T11:15:30;1.58;;;1.48;;
33357;SDS011;19717;42.614;23.418;2023-05-10T11:17:56;2.05;;;1.50;;
33357;SDS011;19717;42.614;23.418;2023-05-10T11:20:22;1.50;;;1.40;;
33357;SDS011;19717;42.614;23.418;2023-05-10T11:22:53;1.35;;;1.25;;
33357;SDS011;19717;42.614;23.418;2023-05-10T11:25:26;1.45;;;1.40;;
33357;SDS011;19717;42.614;23.418;2023-05-10T11:27:53;2.60;;;1.50;;
33357;SDS011;19717;42.614;23.418;2023-05-10T11:30:19;1.65;;;1.55;;
33357;SDS011;19717;42.614;23.418;2023-05-10T11:32:45;1.63;;;1.55;;
33357;SDS011;19717;42.614;23.418;2023-05-10T11:35:11;1.48;;;1.38;;
33357;SDS011;19717;42.614;23.418;2023-05-10T11:37:41;1.27;;;1.27;;
33357;SDS011;19717;42.614;23.418;2023-05-10T11:40:09;1.70;;;1.50;;
33357;SDS011;19717;42.614;23.418;2023-05-10T11:42:38;1.75;;;1.30;;
33357;SDS011;19717;42.614;23.418;2023-05-10T11:45:05;1.42;;;1.33;;
33357;SDS011;19717;42.614;23.418;2023-05-10T11:47:31;2.50;;;1.40;;
33357;SDS011;19717;42.614;23.418;2023-05-10T11:49:57;1.40;;;1.40;;
33357;SDS011;19717;42.614;23.418;2023-05-10T11:52:23;1.67;;;1.58;;
33357;SDS011;19717;42.614;23.418;2023-05-10T11:54:53;1.42;;;1.33;;
33357;SDS011;19717;42.614;23.418;2023-05-10T11:57:20;1.70;;;1.60;;
33357;SDS011;19717;42.614;23.418;2023-05-10T11:59:46;1.45;;;1.35;;
33357;SDS011;19717;42.614;23.418;2023-05-10T12:02:15;2.10;;;1.70;;
33357;SDS011;19717;42.614;23.418;2023-05-10T12:04:41;2.72;;;1.58;;
33357;SDS011;19717;42.614;23.418;2023-05-10T12:07:07;1.90;;;1.80;;
33357;SDS011;19717;42.614;23.418;2023-05-10T12:09:33;1.60;;;1.50;;
33357;SDS011;19717;42.614;23.418;2023-05-10T12:12:00;1.67;;;1.58;;
33357;SDS011;19717;42.614;23.418;2023-05-10T12:14:26;1.60;;;1.50;;
33357;SDS011;19717;42.614;23.418;2023-05-10T12:16:53;1.48;;;1.40;;
33357;SDS011;19717;42.614;23.418;2023-05-10T12:19:19;1.67;;;1.58;;
33357;SDS011;19717;42.614;23.418;2023-05-10T12:21:46;1.70;;;1.60;;
33357;SDS011;19717;42.614;23.418;2023-05-10T12:24:12;1.85;;;1.75;;
33357;SDS011;19717;42.614;23.418;2023-05-10T12:26:41;1.60;;;1.50;;
33357;SDS011;19717;42.614;23.418;2023-05-10T12:31:56;1.75;;;1.65;;
33357;SDS011;19717;42.614;23.418;2023-05-10T12:34:23;1.80;;;1.70;;
33357;SDS011;19717;42.614;23.418;2023-05-10T12:36:51;1.42;;;1.42;;
33357;SDS011;19717;42.614;23.418;2023-05-10T12:39:17;1.75;;;1.65;;
33357;SDS011;19717;42.614;23.418;2023-05-10T12:41:43;1.88;;;1.60;;
33357;SDS011;19717;42.614;23.418;2023-05-10T12:44:10;1.70;;;1.60;;
33357;SDS011;19717;42.614;23.418;2023-05-10T12:46:36;1.67;;;1.58;;
33357;SDS011;19717;42.614;23.418;2023-05-10T12:49:02;1.30;;;1.30;;
33357;SDS011;19717;42.614;23.418;2023-05-10T12:51:28;1.70;;;1.30;;
33357;SDS011;19717;42.614;23.418;2023-05-10T12:53:54;1.50;;;1.40;;
33357;SDS011;19717;42.614;23.418;2023-05-10T12:56:20;1.30;;;1.30;;
33357;SDS011;19717;42.614;23.418;2023-05-10T12:58:46;1.20;;;1.20;;
33357;SDS011;19717;42.614;23.418;2023-05-10T13:01:13;1.30;;;1.30;;
33357;SDS011;19717;42.614;23.418;2023-05-10T13:03:39;1.40;;;1.20;;
33357;SDS011;19717;42.614;23.418;2023-05-10T13:06:05;1.60;;;1.50;;
33357;SDS011;19717;42.614;23.418;2023-05-10T13:08:32;1.40;;;1.40;;
33357;SDS011;19717;42.614;23.418;2023-05-10T13:11:01;1.60;;;1.50;;
33357;SDS011;19717;42.614;23.418;2023-05-10T13:13:28;1.40;;;1.40;;
33357;SDS011;19717;42.614;23.418;2023-05-10T13:15:54;1.60;;;1.50;;
33357;SDS011;19717;42.614;23.418;2023-05-10T13:18:20;1.38;;;1.38;;
33357;SDS011;19717;42.614;23.418;2023-05-10T13:20:46;1.50;;;1.40;;
33357;SDS011;19717;42.614;23.418;2023-05-10T13:23:14;1.40;;;1.27;;
33357;SDS011;19717;42.614;23.418;2023-05-10T13:25:40;1.25;;;1.25;;
33357;SDS011;19717;42.614;23.418;2023-05-10T13:28:06;1.40;;;1.30;;
33357;SDS011;19717;42.614;23.418;2023-05-10T13:30:32;1.33;;;1.23;;
33357;SDS011;19717;42.614;23.418;2023-05-10T13:32:58;1.45;;;1.35;;
33357;SDS011;19717;42.614;23.418;2023-05-10T13:35:24;1.58;;;1.48;;
33357;SDS011;19717;42.614;23.418;2023-05-10T13:37:50;1.23;;;1.13;;
33357;SDS011;19717;42.614;23.418;2023-05-10T13:40:18;1.63;;;1.40;;
33357;SDS011;19717;42.614;23.418;2023-05-10T13:42:44;1.55;;;1.45;;
33357;SDS011;19717;42.614;23.418;2023-05-10T13:45:11;1.30;;;1.20;;
33357;SDS011;19717;42.614;23.418;2023-05-10T13:47:38;1.42;;;1.33;;
33357;SDS011;19717;42.614;23.418;2023-05-10T13:50:04;1.50;;;1.40;;
33357;SDS011;19717;42.614;23.418;2023-05-10T13:52:33;1.48;;;1.40;;
33357;SDS011;19717;42.614;23.418;2023-05-10T13:55:00;1.77;;;1.50;;
33357;SDS011;19717;42.614;23.418;2023-05-10T13:57:26;1.38;;;1.27;;
33357;SDS011;19717;42.614;23.418;2023-05-10T13:59:53;1.60;;;1.42;;
33357;SDS011;19717;42.614;23.418;2023-05-10T14:02:20;1.40;;;1.33;;
33357;SDS011;19717;42.614;23.418;2023-05-10T14:04:46;1.50;;;1.40;;
33357;SDS011;19717;42.614;23.418;2023-05-10T14:07:12;1.55;;;1.50;;
33357;SDS011;19717;42.614;23.418;2023-05-10T14:09:38;1.33;;;1.33;;
33357;SDS011;19717;42.614;23.418;2023-05-10T14:12:04;3.05;;;1.33;;
33357;SDS011;19717;42.614;23.418;2023-05-10T14:14:30;1.50;;;1.40;;
33357;SDS011;19717;42.614;23.418;2023-05-10T14:16:56;1.33;;;1.23;;
33357;SDS011;19717;42.614;23.418;2023-05-10T14:19:23;1.60;;;1.50;;
33357;SDS011;19717;42.614;23.418;2023-05-10T14:21:49;1.42;;;1.27;;
33357;SDS011;19717;42.614;23.418;2023-05-10T14:24:16;1.52;;;1.42;;
33357;SDS011;19717;42.614;23.418;2023-05-10T14:26:42;1.30;;;1.20;;
33357;SDS011;19717;42.614;23.418;2023-05-10T14:29:08;1.20;;;1.20;;
33357;SDS011;19717;42.614;23.418;2023-05-10T14:31:34;1.20;;;1.20;;
33357;SDS011;19717;42.614;23.418;2023-05-10T14:34:01;1.60;;;1.50;;
33357;SDS011;19717;42.614;23.418;2023-05-10T14:36:27;1.40;;;1.30;;
33357;SDS011;19717;42.614;23.418;2023-05-10T14:38:54;1.38;;;1.38;;
33357;SDS011;19717;42.614;23.418;2023-05-10T14:41:20;2.35;;;1.50;;
33357;SDS011;19717;42.614;23.418;2023-05-10T14:43:46;1.10;;;1.10;;
33357;SDS011;19717;42.614;23.418;2023-05-10T14:46:12;1.60;;;1.50;;
33357;SDS011;19717;42.614;23.418;2023-05-10T14:48:38;1.40;;;1.30;;
33357;SDS011;19717;42.614;23.418;2023-05-10T14:51:04;1.25;;;1.25;;
33357;SDS011;19717;42.614;23.418;2023-05-10T14:53:30;1.52;;;1.45;;
33357;SDS011;19717;42.614;23.418;2023-05-10T14:55:56;1.30;;;1.20;;
33357;SDS011;19717;42.614;23.418;2023-05-10T14:58:25;1.33;;;1.30;;
33357;SDS011;19717;42.614;23.418;2023-05-10T15:00:51;1.50;;;1.40;;
33357;SDS011;19717;42.614;23.418;2023-05-10T15:03:18;2.40;;;1.50;;
33357;SDS011;19717;42.614;23.418;2023-05-10T15:05:44;1.73;;;1.30;;
33357;SDS011;19717;42.614;23.418;2023-05-10T15:08:10;1.40;;;1.30;;
33357;SDS011;19717;42.614;23.418;2023-05-10T15:10:37;1.50;;;1.40;;
33357;SDS011;19717;42.614;23.418;2023-05-10T15:13:03;1.42;;;1.42;;
33357;SDS011;19717;42.614;23.418;2023-05-10T15:15:29;1.88;;;1.50;;